sensor_id;sensor_type;location;lat;lon;timestamp;P1;durP1;ratioP1;P2;durP2;ratioP2
45944;SDS011;31655;48.972;10.686;2024-01-07T00:01:45;33.50;;;16.83;;
45944;SDS011;31655;48.972;10.686;2024-01-07T00:04:12;29.23;;;15.25;;
45944;SDS011;31655;48.972;10.686;2024-01-07T00:06:39;30.77;;;16.25;;
45944;SDS011;31655;48.972;10.686;2024-01-07T00:09:05;30.20;;;16.80;;
45944;SDS011;31655;48.972;10.686;2024-01-07T00:11:30;31.58;;;16.48;;
45944;SDS011;31655;48.972;10.686;2024-01-07T00:13:59;26.33;;;14.70;;
45944;SDS011;31655;48.972;10.686;2024-01-07T00:16:27;33.17;;;16.85;;
45944;SDS011;31655;48.972;10.686;2024-01-07T00:18:53;27.23;;;15.82;;
45944;SDS011;31655;48.972;10.686;2024-01-07T00:21:18;30.67;;;16.15;;
45944;SDS011;31655;48.972;10.686;2024-01-07T00:23:44;27.20;;;16.02;;
45944;SDS011;31655;48.972;10.686;2024-01-07T00:26:10;27.42;;;16.05;;
45944;SDS011;31655;48.972;10.686;2024-01-07T00:28:35;28.27;;;17.10;;
45944;SDS011;31655;48.972;10.686;2024-01-07T00:31:01;30.20;;;16.67;;
45944;SDS011;31655;48.972;10.686;2024-01-07T00:33:27;31.05;;;17.70;;
45944;SDS011;31655;48.972;10.686;2024-01-07T00:35:52;40.05;;;19.73;;
45944;SDS011;31655;48.972;10.686;2024-01-07T00:38:18;35.20;;;18.52;;
45944;SDS011;31655;48.972;10.686;2024-01-07T00:40:43;30.98;;;19.73;;
45944;SDS011;31655;48.972;10.686;2024-01-07T00:43:09;39.47;;;18.05;;
45944;SDS011;31655;48.972;10.686;2024-01-07T00:45:35;40.53;;;18.65;;
45944;SDS011;31655;48.972;10.686;2024-01-07T00:48:00;39.45;;;18.77;;
45944;SDS011;31655;48.972;10.686;2024-01-07T00:50:26;37.10;;;18.23;;
45944;SDS011;31655;48.972;10.686;2024-01-07T00:52:52;31.13;;;18.00;;
45944;SDS011;31655;48.972;10.686;2024-01-07T00:55:18;37.10;;;19.23;;
45944;SDS011;31655;48.972;10.686;2024-01-07T00:57:43;37.40;;;19.70;;
45944;SDS011;31655;48.972;10.686;2024-01-07T01:00:09;38.33;;;19.52;;
45944;SDS011;31655;48.972;10.686;2024-01-07T01:02:36;36.13;;;20.00;;
45944;SDS011;31655;48.972;10.686;2024-01-07T01:05:02;36.58;;;19.05;;
45944;SDS011;31655;48.972;10.686;2024-01-07T01:07:28;38.83;;;21.85;;
45944;SDS011;31655;48.972;10.686;2024-01-07T01:09:54;44.03;;;20.85;;
45944;SDS011;31655;48.972;10.686;2024-01-07T01:12:20;37.30;;;19.85;;
45944;SDS011;31655;48.972;10.686;2024-01-07T01:14:46;36.88;;;17.85;;
45944;SDS011;31655;48.972;10.686;2024-01-07T01:17:11;38.33;;;18.17;;
45944;SDS011;31655;48.972;10.686;2024-01-07T01:19:38;35.75;;;19.60;;
45944;SDS011;31655;48.972;10.686;2024-01-07T01:22:03;35.65;;;19.30;;
45944;SDS011;31655;48.972;10.686;2024-01-07T01:24:29;33.20;;;18.77;;
45944;SDS011;31655;48.972;10.686;2024-01-07T01:26:54;41.25;;;20.45;;
45944;SDS011;31655;48.972;10.686;2024-01-07T01:29:20;31.70;;;18.20;;
45944;SDS011;31655;48.972;10.686;2024-01-07T01:31:45;39.90;;;18.83;;
45944;SDS011;31655;48.972;10.686;2024-01-07T01:34:11;34.45;;;20.05;;
45944;SDS011;31655;48.972;10.686;2024-01-07T01:36:37;35.95;;;20.23;;
45944;SDS011;31655;48.972;10.686;2024-01-07T01:39:02;34.60;;;19.50;;
45944;SDS011;31655;48.972;10.686;2024-01-07T01:41:28;38.10;;;18.60;;
45944;SDS011;31655;48.972;10.686;2024-01-07T01:43:57;39.78;;;20.45;;
45944;SDS011;31655;48.972;10.686;2024-01-07T01:46:24;42.50;;;19.38;;
45944;SDS011;31655;48.972;10.686;2024-01-07T01:48:49;36.75;;;20.27;;
45944;SDS011;31655;48.972;10.686;2024-01-07T01:51:16;52.47;;;21.80;;
45944;SDS011;31655;48.972;10.686;2024-01-07T01:53:42;32.53;;;18.58;;
45944;SDS011;31655;48.972;10.686;2024-01-07T01:56:09;39.40;;;19.17;;
45944;SDS011;31655;48.972;10.686;2024-01-07T01:58:34;34.72;;;19.63;;
45944;SDS011;31655;48.972;10.686;2024-01-07T02:01:00;38.35;;;20.88;;
45944;SDS011;31655;48.972;10.686;2024-01-07T02:03:26;38.08;;;20.73;;
45944;SDS011;31655;48.972;10.686;2024-01-07T02:05:52;39.67;;;19.10;;
45944;SDS011;31655;48.972;10.686;2024-01-07T02:08:19;39.30;;;21.75;;
45944;SDS011;31655;48.972;10.686;2024-01-07T02:10:44;34.58;;;19.50;;
45944;SDS011;31655;48.972;10.686;2024-01-07T02:13:10;40.47;;;19.95;;
45944;SDS011;31655;48.972;10.686;2024-01-07T02:15:36;38.38;;;22.00;;
45944;SDS011;31655;48.972;10.686;2024-01-07T02:18:02;36.55;;;21.13;;
45944;SDS011;31655;48.972;10.686;2024-01-07T02:20:28;40.33;;;20.33;;
45944;SDS011;31655;48.972;10.686;2024-01-07T02:22:53;42.60;;;20.98;;
45944;SDS011;31655;48.972;10.686;2024-01-07T02:25:19;45.45;;;20.85;;
45944;SDS011;31655;48.972;10.686;2024-01-07T02:27:44;35.38;;;20.55;;
45944;SDS011;31655;48.972;10.686;2024-01-07T02:30:10;37.88;;;19.45;;
45944;SDS011;31655;48.972;10.686;2024-01-07T02:32:37;38.35;;;20.58;;
45944;SDS011;31655;48.972;10.686;2024-01-07T02:35:03;34.15;;;19.90;;
45944;SDS011;31655;48.972;10.686;2024-01-07T02:37:29;38.83;;;19.58;;
45944;SDS011;31655;48.972;10.686;2024-01-07T02:39:55;37.83;;;19.85;;
45944;SDS011;31655;48.972;10.686;2024-01-07T02:42:21;39.47;;;21.85;;
45944;SDS011;31655;48.972;10.686;2024-01-07T02:44:46;38.28;;;20.83;;
45944;SDS011;31655;48.972;10.686;2024-01-07T02:47:12;39.55;;;20.23;;
45944;SDS011;31655;48.972;10.686;2024-01-07T02:49:38;37.95;;;20.13;;
45944;SDS011;31655;48.972;10.686;2024-01-07T02:52:03;34.45;;;19.17;;
45944;SDS011;31655;48.972;10.686;2024-01-07T02:54:29;35.83;;;19.80;;
45944;SDS011;31655;48.972;10.686;2024-01-07T02:56:55;34.38;;;19.73;;
45944;SDS011;31655;48.972;10.686;2024-01-07T02:59:20;35.55;;;19.55;;
45944;SDS011;31655;48.972;10.686;2024-01-07T03:01:46;36.03;;;19.27;;
45944;SDS011;31655;48.972;10.686;2024-01-07T03:04:12;37.58;;;20.67;;
45944;SDS011;31655;48.972;10.686;2024-01-07T03:06:41;39.13;;;18.67;;
45944;SDS011;31655;48.972;10.686;2024-01-07T03:09:07;39.03;;;21.23;;
45944;SDS011;31655;48.972;10.686;2024-01-07T03:11:38;40.92;;;20.60;;
45944;SDS011;31655;48.972;10.686;2024-01-07T03:14:05;37.30;;;19.98;;
45944;SDS011;31655;48.972;10.686;2024-01-07T03:16:31;40.97;;;22.00;;
45944;SDS011;31655;48.972;10.686;2024-01-07T03:18:57;42.72;;;21.33;;
45944;SDS011;31655;48.972;10.686;2024-01-07T03:21:22;43.20;;;21.50;;
45944;SDS011;31655;48.972;10.686;2024-01-07T03:23:49;34.17;;;20.05;;
45944;SDS011;31655;48.972;10.686;2024-01-07T03:26:16;45.25;;;22.67;;
45944;SDS011;31655;48.972;10.686;2024-01-07T03:28:43;44.75;;;22.23;;
45944;SDS011;31655;48.972;10.686;2024-01-07T03:31:10;44.85;;;20.50;;
45944;SDS011;31655;48.972;10.686;2024-01-07T03:33:37;39.15;;;20.55;;
45944;SDS011;31655;48.972;10.686;2024-01-07T03:36:07;42.90;;;21.95;;
45944;SDS011;31655;48.972;10.686;2024-01-07T03:38:37;43.35;;;23.13;;
45944;SDS011;31655;48.972;10.686;2024-01-07T03:41:03;42.05;;;20.13;;
45944;SDS011;31655;48.972;10.686;2024-01-07T03:43:29;42.03;;;22.08;;
45944;SDS011;31655;48.972;10.686;2024-01-07T03:45:55;48.17;;;22.40;;
45944;SDS011;31655;48.972;10.686;2024-01-07T03:48:22;38.75;;;20.38;;
45944;SDS011;31655;48.972;10.686;2024-01-07T03:50:48;44.53;;;21.27;;
45944;SDS011;31655;48.972;10.686;2024-01-07T03:53:15;36.72;;;20.65;;
45944;SDS011;31655;48.972;10.686;2024-01-07T03:55:41;46.33;;;22.63;;
45944;SDS011;31655;48.972;10.686;2024-01-07T03:58:07;40.67;;;21.20;;
45944;SDS011;31655;48.972;10.686;2024-01-07T04:00:32;40.47;;;21.42;;
45944;SDS011;31655;48.972;10.686;2024-01-07T04:02:59;38.97;;;19.60;;
45944;SDS011;31655;48.972;10.686;2024-01-07T04:05:25;38.17;;;21.20;;
45944;SDS011;31655;48.972;10.686;2024-01-07T04:07:51;37.63;;;19.80;;
45944;SDS011;31655;48.972;10.686;2024-01-07T04:10:17;39.00;;;19.27;;
45944;SDS011;31655;48.972;10.686;2024-01-07T04:12:43;33.97;;;18.65;;
45944;SDS011;31655;48.972;10.686;2024-01-07T04:15:09;34.72;;;17.95;;
45944;SDS011;31655;48.972;10.686;2024-01-07T04:17:35;33.17;;;17.63;;
45944;SDS011;31655;48.972;10.686;2024-01-07T04:20:01;33.65;;;19.65;;
45944;SDS011;31655;48.972;10.686;2024-01-07T04:22:32;30.08;;;16.95;;
45944;SDS011;31655;48.972;10.686;2024-01-07T04:25:03;28.23;;;15.40;;
45944;SDS011;31655;48.972;10.686;2024-01-07T04:27:35;30.48;;;16.88;;
45944;SDS011;31655;48.972;10.686;2024-01-07T04:30:02;32.90;;;17.25;;
45944;SDS011;31655;48.972;10.686;2024-01-07T04:32:28;31.05;;;18.13;;
45944;SDS011;31655;48.972;10.686;2024-01-07T04:38:19;32.90;;;18.00;;
45944;SDS011;31655;48.972;10.686;2024-01-07T04:40:44;29.67;;;16.67;;
45944;SDS011;31655;48.972;10.686;2024-01-07T04:43:10;33.03;;;18.52;;
45944;SDS011;31655;48.972;10.686;2024-01-07T04:45:35;35.05;;;19.20;;
45944;SDS011;31655;48.972;10.686;2024-01-07T04:48:01;31.23;;;16.70;;
45944;SDS011;31655;48.972;10.686;2024-01-07T12:16:13;33.70;;;16.63;;
45944;SDS011;31655;48.972;10.686;2024-01-07T12:18:40;33.70;;;14.85;;
45944;SDS011;31655;48.972;10.686;2024-01-07T12:21:25;26.98;;;15.43;;
45944;SDS011;31655;48.972;10.686;2024-01-07T12:23:57;29.55;;;14.50;;
45944;SDS011;31655;48.972;10.686;2024-01-07T12:26:28;33.92;;;16.55;;
45944;SDS011;31655;48.972;10.686;2024-01-07T12:29:33;36.15;;;16.13;;
45944;SDS011;31655;48.972;10.686;2024-01-07T12:32:02;34.92;;;16.45;;
45944;SDS011;31655;48.972;10.686;2024-01-07T12:34:28;34.63;;;16.25;;
45944;SDS011;31655;48.972;10.686;2024-01-07T12:37:06;29.15;;;15.10;;
45944;SDS011;31655;48.972;10.686;2024-01-07T12:39:50;27.17;;;14.37;;
45944;SDS011;31655;48.972;10.686;2024-01-07T12:42:55;31.00;;;16.10;;
45944;SDS011;31655;48.972;10.686;2024-01-07T12:45:23;31.83;;;16.10;;
45944;SDS011;31655;48.972;10.686;2024-01-07T12:47:55;28.92;;;14.32;;
45944;SDS011;31655;48.972;10.686;2024-01-07T12:50:39;33.33;;;15.75;;
45944;SDS011;31655;48.972;10.686;2024-01-07T12:53:08;30.33;;;16.83;;
45944;SDS011;31655;48.972;10.686;2024-01-07T12:55:34;28.52;;;15.73;;
45944;SDS011;31655;48.972;10.686;2024-01-07T12:58:01;30.60;;;15.82;;
45944;SDS011;31655;48.972;10.686;2024-01-07T13:00:32;31.23;;;16.63;;
45944;SDS011;31655;48.972;10.686;2024-01-07T13:03:00;29.70;;;15.27;;
45944;SDS011;31655;48.972;10.686;2024-01-07T13:05:29;26.70;;;14.68;;
45944;SDS011;31655;48.972;10.686;2024-01-07T13:08:01;31.23;;;15.82;;
45944;SDS011;31655;48.972;10.686;2024-01-07T13:10:29;31.88;;;15.75;;
45944;SDS011;31655;48.972;10.686;2024-01-07T13:12:55;30.02;;;16.33;;
45944;SDS011;31655;48.972;10.686;2024-01-07T13:15:31;35.75;;;16.67;;
45944;SDS011;31655;48.972;10.686;2024-01-07T13:17:57;31.42;;;16.05;;
45944;SDS011;31655;48.972;10.686;2024-01-07T13:20:23;29.23;;;14.80;;
45944;SDS011;31655;48.972;10.686;2024-01-07T13:22:49;32.30;;;15.68;;
45944;SDS011;31655;48.972;10.686;2024-01-07T13:25:15;28.52;;;14.95;;
45944;SDS011;31655;48.972;10.686;2024-01-07T13:27:44;37.67;;;17.30;;
45944;SDS011;31655;48.972;10.686;2024-01-07T13:30:11;29.02;;;14.70;;
45944;SDS011;31655;48.972;10.686;2024-01-07T13:32:37;29.60;;;14.07;;
45944;SDS011;31655;48.972;10.686;2024-01-07T13:35:04;30.58;;;14.50;;
45944;SDS011;31655;48.972;10.686;2024-01-07T13:37:31;28.08;;;14.07;;
45944;SDS011;31655;48.972;10.686;2024-01-07T13:39:57;29.95;;;14.73;;
45944;SDS011;31655;48.972;10.686;2024-01-07T13:42:24;28.35;;;15.18;;
45944;SDS011;31655;48.972;10.686;2024-01-07T13:44:53;34.58;;;14.82;;
45944;SDS011;31655;48.972;10.686;2024-01-07T13:47:28;30.92;;;15.52;;
45944;SDS011;31655;48.972;10.686;2024-01-07T13:49:54;31.10;;;16.27;;
45944;SDS011;31655;48.972;10.686;2024-01-07T13:52:21;26.80;;;14.80;;
45944;SDS011;31655;48.972;10.686;2024-01-07T13:54:48;31.75;;;17.45;;
45944;SDS011;31655;48.972;10.686;2024-01-07T13:57:13;29.85;;;14.18;;
45944;SDS011;31655;48.972;10.686;2024-01-07T13:59:39;28.13;;;14.95;;
45944;SDS011;31655;48.972;10.686;2024-01-07T14:02:08;29.38;;;14.23;;
45944;SDS011;31655;48.972;10.686;2024-01-07T14:04:35;33.83;;;15.52;;
45944;SDS011;31655;48.972;10.686;2024-01-07T14:07:01;39.15;;;18.80;;
45944;SDS011;31655;48.972;10.686;2024-01-07T14:09:28;29.05;;;15.73;;
45944;SDS011;31655;48.972;10.686;2024-01-07T14:11:57;34.55;;;17.17;;
45944;SDS011;31655;48.972;10.686;2024-01-07T14:14:30;27.30;;;16.02;;
45944;SDS011;31655;48.972;10.686;2024-01-07T14:16:57;32.78;;;17.95;;
45944;SDS011;31655;48.972;10.686;2024-01-07T14:19:24;37.05;;;17.63;;
45944;SDS011;31655;48.972;10.686;2024-01-07T14:21:53;29.67;;;16.45;;
45944;SDS011;31655;48.972;10.686;2024-01-07T14:24:19;27.13;;;14.43;;
45944;SDS011;31655;48.972;10.686;2024-01-07T14:26:45;28.48;;;14.63;;
45944;SDS011;31655;48.972;10.686;2024-01-07T14:29:12;27.50;;;13.85;;
45944;SDS011;31655;48.972;10.686;2024-01-07T14:31:38;21.10;;;11.57;;
45944;SDS011;31655;48.972;10.686;2024-01-07T14:34:14;25.83;;;12.35;;
45944;SDS011;31655;48.972;10.686;2024-01-07T14:36:41;23.27;;;11.82;;
45944;SDS011;31655;48.972;10.686;2024-01-07T14:39:09;24.08;;;13.82;;
45944;SDS011;31655;48.972;10.686;2024-01-07T14:41:41;28.45;;;15.45;;
45944;SDS011;31655;48.972;10.686;2024-01-07T14:44:08;29.67;;;13.85;;
45944;SDS011;31655;48.972;10.686;2024-01-07T14:46:40;24.20;;;13.40;;
45944;SDS011;31655;48.972;10.686;2024-01-07T14:49:06;22.42;;;12.75;;
45944;SDS011;31655;48.972;10.686;2024-01-07T14:51:32;25.92;;;13.15;;
45944;SDS011;31655;48.972;10.686;2024-01-07T14:53:58;28.50;;;14.45;;
45944;SDS011;31655;48.972;10.686;2024-01-07T14:56:25;20.90;;;12.48;;
45944;SDS011;31655;48.972;10.686;2024-01-07T14:58:52;24.88;;;11.95;;
45944;SDS011;31655;48.972;10.686;2024-01-07T15:01:23;31.80;;;14.15;;
45944;SDS011;31655;48.972;10.686;2024-01-07T15:04:10;26.00;;;12.90;;
45944;SDS011;31655;48.972;10.686;2024-01-07T15:06:43;24.20;;;13.38;;
45944;SDS011;31655;48.972;10.686;2024-01-07T15:09:11;28.98;;;14.38;;
45944;SDS011;31655;48.972;10.686;2024-01-07T15:11:39;27.17;;;14.23;;
45944;SDS011;31655;48.972;10.686;2024-01-07T15:14:15;28.83;;;13.27;;
45944;SDS011;31655;48.972;10.686;2024-01-07T15:16:55;28.20;;;13.18;;
45944;SDS011;31655;48.972;10.686;2024-01-07T15:20:30;29.20;;;13.38;;
45944;SDS011;31655;48.972;10.686;2024-01-07T15:26:30;25.75;;;13.25;;
45944;SDS011;31655;48.972;10.686;2024-01-07T15:29:34;23.52;;;12.25;;
